Strona główna
METAR-TAF:

METAR-TAF

Lotnisko :

Port lotniczy Friedrichshafen

Friedrichshafen, Niemcy

Szerokość geograficzna: 47-40N, Długość geograficzna: 009-31E, wysokość: 416 m

Aktualna obserwacja pogody

Raport powstał 21 minut temu, godzina 10:50 UTC
Wiatr 10 kt od południowy zachód
Temperatura 8°C
Wilgotność 57%
Ciśnienie 1029 hPa
Widzialność 10 km lub więcej
Mało chmury na wysokości 4000 ft

METAR: EDNY 181050Z 22010KT 9999 FEW040 08/00 Q1029

czas: 12:11 (11:11 UTC)

Prognoza

Raport powstał 6 godziny i 11 minut temu, godzina 05:00 UTC
Prognoza ważna od 18 godzina 06 UTC do 19 godzina 06 UTC
Wiatr 7 kt od zachodnio-południowy zachód
Widzialność 10 km lub więcej
Rozproszone chmury na wysokości 3000 ft
Stopniowe zmiany
od 18 godzina 10 UTC do 18 godzina 12 UTC
Wiatr 12 kt od zachodnio-południowy zachód
Stopniowe zmiany
od 18 godzina 16 UTC do 18 godzina 18 UTC
Wiatr 5 kt od zachodnio-południowy zachód

TAF: EDNY 180500Z 1806/1906 24007KT 9999 SCT030 BECMG 1810/1812 24012KT BECMG 1816/1818 25005KT

Obserwacja i prognoza pogody dla ponad 4000 lotnisk (raport METAR i TAF).

Dostępne stacje oznaczono żółtymi i czerwonymi punktami na mapie.

Najedź kursorem aby zobaczyć nazwę stacji.

Kliknij aby zobaczyć obserwacje i prognozy pogody.

Aby zmienić mapę: kliknij na zielony przycisk z czarnym krzyżykiem, aby powiększyć; na zielony przycisk z myślnikiem, aby pomniejszyć; na zielone strzałki, aby przejść do map sąsiednich.


METAR-TAF: